Time;durP1;ratioP1;P1;durP2;ratioP2;P2;SDS_P1;SDS_P2;PMS_P1;PMS_P2;Temp;Humidity;BMP_temperature;BMP_pressure;BME280_temperature;BME280_humidity;BME280_pressure;Samples;Min_cycle;Max_cycle;Signal;HPM_P1;HPM_P2
2022/10/04 00:01:57;;;;;;;16.02;9.25;;;;;;;;;;5080700;28;20135;-79
2022/10/04 00:04:28;;;;;;;24.65;11.05;;;;;;;;;;5080451;28;20031;-78
2022/10/04 00:07:07;;;;;;;13.45;7.40;;;;;;;;;;5079522;28;20039;-76
2022/10/04 00:09:41;;;;;;;15.32;9.05;;;;;;;;;;5080600;28;20101;-78
2022/10/04 00:12:16;;;;;;;18.42;13.30;;;;;;;;;;5078318;28;20131;-75
2022/10/04 00:14:41;;;;;;;17.27;12.40;;;;;;;;;;5081279;28;20423;-76
2022/10/04 00:17:12;;;;;;;7.07;5.38;;;;;;;;;;5081463;28;20035;-76
2022/10/04 00:19:45;;;;;;;7.57;5.25;;;;;;;;;;5078438;28;20091;-79
2022/10/04 00:22:24;;;;;;;14.27;8.70;;;;;;;;;;5077038;28;20012;-75
2022/10/04 00:25:05;;;;;;;13.65;8.77;;;;;;;;;;5079359;28;20107;-79
2022/10/04 00:27:31;;;;;;;10.93;6.00;;;;;;;;;;5081397;28;20127;-76
2022/10/04 00:30:17;;;;;;;6.13;4.88;;;;;;;;;;5079648;28;20399;-77
2022/10/04 00:32:47;;;;;;;6.40;4.93;;;;;;;;;;5067518;28;20123;-77
2022/10/04 00:35:41;;;;;;;4.75;3.78;;;;;;;;;;5080966;28;20016;-77
2022/10/04 00:38:14;;;;;;;4.90;4.20;;;;;;;;;;5074062;28;20036;-79
2022/10/04 00:40:59;;;;;;;5.10;4.60;;;;;;;;;;5074247;28;20783;-76
2022/10/04 00:43:26;;;;;;;20.58;12.48;;;;;;;;;;5081933;28;20047;-75
2022/10/04 00:45:53;;;;;;;26.17;17.42;;;;;;;;;;5083495;28;20336;-77
2022/10/04 00:48:34;;;;;;;18.48;12.85;;;;;;;;;;5082682;28;20042;-75
2022/10/04 00:51:03;;;;;;;27.70;17.27;;;;;;;;;;5076365;28;21369;-80
2022/10/04 00:53:46;;;;;;;15.98;11.15;;;;;;;;;;5084358;28;20024;-78
2022/10/04 00:56:17;;;;;;;13.50;10.23;;;;;;;;;;5084504;28;20043;-75
2022/10/04 00:59:04;;;;;;;9.57;7.18;;;;;;;;;;5080967;28;20493;-75
2022/10/04 01:01:32;;;;;;;15.95;12.20;;;;;;;;;;5084514;28;20478;-74
2022/10/04 01:04:00;;;;;;;9.60;8.00;;;;;;;;;;5080400;28;20023;-79
2022/10/04 01:06:26;;;;;;;9.93;7.18;;;;;;;;;;5081573;28;20410;-76
2022/10/04 01:08:53;;;;;;;8.07;6.40;;;;;;;;;;5082594;28;20051;-75
2022/10/04 01:11:22;;;;;;;9.10;6.25;;;;;;;;;;5074471;28;20111;-80
2022/10/04 01:13:50;;;;;;;8.40;5.90;;;;;;;;;;5080063;28;20130;-77
2022/10/04 01:16:21;;;;;;;8.88;7.25;;;;;;;;;;5082576;28;20458;-76
2022/10/04 01:18:46;;;;;;;12.52;8.88;;;;;;;;;;5082942;28;20074;-77
2022/10/04 01:21:21;;;;;;;8.88;6.07;;;;;;;;;;5081253;28;20048;-75
2022/10/04 01:24:09;;;;;;;7.85;5.80;;;;;;;;;;5072367;28;20051;-79
2022/10/04 01:26:40;;;;;;;11.50;7.25;;;;;;;;;;5070782;28;20040;-76
2022/10/04 01:29:08;;;;;;;10.25;7.60;;;;;;;;;;5082806;28;20038;-78
2022/10/04 01:31:35;;;;;;;7.72;6.78;;;;;;;;;;5084107;28;20066;-77
2022/10/04 01:34:01;;;;;;;14.98;11.35;;;;;;;;;;5081961;28;20071;-76
2022/10/04 01:36:26;;;;;;;18.83;13.27;;;;;;;;;;5080148;28;20051;-77
2022/10/04 01:38:52;;;;;;;10.80;8.60;;;;;;;;;;5080741;28;20063;-78
2022/10/04 01:41:20;;;;;;;10.45;7.47;;;;;;;;;;5080096;28;20543;-77
2022/10/04 01:43:47;;;;;;;12.43;9.07;;;;;;;;;;5074002;28;20055;-78
2022/10/04 01:46:15;;;;;;;12.65;9.40;;;;;;;;;;5081254;28;20056;-79
2022/10/04 01:48:43;;;;;;;8.40;5.95;;;;;;;;;;5078049;28;20036;-79
2022/10/04 01:51:23;;;;;;;6.47;5.43;;;;;;;;;;5073621;28;20038;-77
2022/10/04 01:53:48;;;;;;;;;;;;;;;;;;5082192;28;20356;-77
2022/10/04 01:56:16;;;;;;;14.50;8.63;;;;;;;;;;5080132;28;19985;-76
2022/10/04 01:58:46;;;;;;;13.07;8.45;;;;;;;;;;5080693;28;20471;-76
2022/10/04 02:01:22;;;;;;;8.70;6.15;;;;;;;;;;5083168;28;20016;-76
2022/10/04 02:03:58;;;;;;;8.20;6.22;;;;;;;;;;5083609;28;20484;-79
2022/10/04 02:06:24;;;;;;;12.25;7.05;;;;;;;;;;5083349;28;20035;-79
2022/10/04 02:08:50;;;;;;;8.95;7.43;;;;;;;;;;5074353;28;20040;-77
2022/10/04 02:11:19;;;;;;;11.93;6.75;;;;;;;;;;5077162;28;20127;-77
2022/10/04 02:13:46;;;;;;;41.95;23.23;;;;;;;;;;5071205;28;20028;-76
2022/10/04 02:16:11;;;;;;;50.38;29.38;;;;;;;;;;5079035;28;20036;-76
2022/10/04 02:18:38;;;;;;;45.08;25.80;;;;;;;;;;5081017;28;20040;-76
2022/10/04 02:21:04;;;;;;;21.83;10.43;;;;;;;;;;5077727;28;20062;-76
2022/10/04 02:23:30;;;;;;;7.68;5.18;;;;;;;;;;5076991;28;20047;-81
2022/10/04 02:25:55;;;;;;;25.30;15.27;;;;;;;;;;5080220;28;20525;-76
2022/10/04 02:28:21;;;;;;;44.47;27.15;;;;;;;;;;5082456;28;20035;-79
2022/10/04 02:32:56;;;;;;;21.10;13.20;;;;;;;;;;5080681;28;20088;-76
2022/10/04 02:33:37;;;;;;;33.22;21.10;;;;;;;;;;5071114;28;20499;-78
2022/10/04 02:36:04;;;;;;;41.70;24.73;;;;;;;;;;5078447;28;20475;-76
2022/10/04 02:38:34;;;;;;;17.58;11.57;;;;;;;;;;5082307;28;20079;-80
2022/10/04 02:40:59;;;;;;;;;;;;;;;;;;5079415;28;20012;-77
2022/10/04 02:43:27;;;;;;;17.13;11.17;;;;;;;;;;5080999;28;19984;-79
2022/10/04 02:46:06;;;;;;;72.55;53.35;;;;;;;;;;5080022;28;20132;-75
2022/10/04 02:48:34;;;;;;;20.20;14.57;;;;;;;;;;5071369;28;20028;-77
2022/10/04 02:51:10;;;;;;;18.50;13.38;;;;;;;;;;5081515;28;20035;-77
2022/10/04 02:53:45;;;;;;;18.40;12.52;;;;;;;;;;5078215;28;20071;-76
2022/10/04 02:56:11;;;;;;;31.98;25.92;;;;;;;;;;5081397;28;20638;-76
2022/10/04 02:58:38;;;;;;;34.67;28.60;;;;;;;;;;5080127;28;20062;-76
2022/10/04 03:01:03;;;;;;;26.70;22.20;;;;;;;;;;5071655;28;20020;-75
2022/10/04 03:03:30;;;;;;;25.23;20.73;;;;;;;;;;5078971;28;20089;-76
2022/10/04 03:06:16;;;;;;;26.83;19.55;;;;;;;;;;5080964;28;20034;-82
2022/10/04 03:08:42;;;;;;;14.98;11.48;;;;;;;;;;5079391;28;20039;-80
2022/10/04 03:11:08;;;;;;;9.43;6.90;;;;;;;;;;5078828;28;20016;-74
2022/10/04 03:13:36;;;;;;;12.13;7.97;;;;;;;;;;5080275;28;20023;-78
2022/10/04 03:16:01;;;;;;;11.73;7.20;;;;;;;;;;5073390;28;20028;-74
2022/10/04 03:18:28;;;;;;;11.10;7.03;;;;;;;;;;5076923;28;20101;-76
2022/10/04 03:20:53;;;;;;;10.18;7.15;;;;;;;;;;5080016;28;20429;-77
2022/10/04 03:23:19;;;;;;;45.63;41.30;;;;;;;;;;5080622;28;20081;-82
2022/10/04 03:25:55;;;;;;;111.05;101.75;;;;;;;;;;5080718;28;20020;-78
2022/10/04 03:28:20;;;;;;;35.08;31.67;;;;;;;;;;5080140;28;20106;-77
2022/10/04 03:30:46;;;;;;;19.13;14.30;;;;;;;;;;5080364;28;20119;-82
2022/10/04 03:33:15;;;;;;;13.98;11.50;;;;;;;;;;5072276;28;20336;-79
2022/10/04 03:35:41;;;;;;;9.50;7.75;;;;;;;;;;5079901;28;20047;-78
2022/10/04 03:38:07;;;;;;;7.57;6.53;;;;;;;;;;5082179;28;20419;-77
2022/10/04 03:40:36;;;;;;;9.90;5.82;;;;;;;;;;5077779;28;20024;-76
2022/10/04 03:43:03;;;;;;;14.70;7.57;;;;;;;;;;5072588;28;20107;-82
2022/10/04 03:45:28;;;;;;;9.07;7.40;;;;;;;;;;5072752;28;20734;-76
2022/10/04 03:47:57;;;;;;;7.05;6.35;;;;;;;;;;5080413;28;20126;-75
2022/10/04 03:50:27;;;;;;;6.33;5.27;;;;;;;;;;5078507;28;20027;-76
2022/10/04 03:52:57;;;;;;;4.68;4.20;;;;;;;;;;5080514;28;20028;-78
2022/10/04 03:55:25;;;;;;;10.32;4.28;;;;;;;;;;5079045;28;20178;-78
2022/10/04 03:57:51;;;;;;;5.55;4.10;;;;;;;;;;5078434;28;20024;-77
2022/10/04 04:00:17;;;;;;;5.95;4.68;;;;;;;;;;5080203;28;21119;-78
2022/10/04 04:02:44;;;;;;;8.55;5.93;;;;;;;;;;5075957;28;20024;-75
2022/10/04 04:05:13;;;;;;;19.52;11.98;;;;;;;;;;5060728;28;20039;-78
2022/10/04 04:07:42;;;;;;;9.95;6.85;;;;;;;;;;5065610;28;21039;-79
2022/10/04 04:10:20;;;;;;;17.10;10.02;;;;;;;;;;5068546;28;20036;-76
2022/10/04 04:12:55;;;;;;;40.75;24.67;;;;;;;;;;5072063;28;20115;-76
2022/10/04 04:15:20;;;;;;;28.42;16.48;;;;;;;;;;5070346;28;20028;-77
2022/10/04 04:17:48;;;;;;;13.57;8.57;;;;;;;;;;5071898;28;20024;-77
2022/10/04 04:20:19;;;;;;;21.00;11.07;;;;;;;;;;5078901;28;20028;-79
2022/10/04 04:22:48;;;;;;;13.23;9.02;;;;;;;;;;5083725;28;20034;-81
2022/10/04 04:25:14;;;;;;;10.57;7.33;;;;;;;;;;5082016;28;20027;-75
2022/10/04 04:27:41;;;;;;;10.20;6.18;;;;;;;;;;5083709;28;20306;-80
2022/10/04 04:30:07;;;;;;;9.55;6.22;;;;;;;;;;5081934;28;20039;-76
2022/10/04 04:32:36;;;;;;;8.07;6.38;;;;;;;;;;5080717;28;20115;-77
2022/10/04 04:35:07;;;;;;;16.58;7.07;;;;;;;;;;5077157;28;20417;-79
2022/10/04 04:37:38;;;;;;;12.25;8.90;;;;;;;;;;5071663;28;20036;-77
2022/10/04 04:40:16;;;;;;;9.10;5.75;;;;;;;;;;5074119;28;20032;-77
2022/10/04 04:42:41;;;;;;;14.18;9.75;;;;;;;;;;5083050;28;20124;-72
2022/10/04 04:45:16;;;;;;;9.98;7.55;;;;;;;;;;5081644;28;20614;-78
2022/10/04 04:47:43;;;;;;;9.93;7.10;;;;;;;;;;5080658;28;20035;-76
2022/10/04 04:50:23;;;;;;;10.38;6.55;;;;;;;;;;5083171;28;20032;-75
2022/10/04 04:52:53;;;;;;;10.43;6.60;;;;;;;;;;5083443;28;20051;-75
2022/10/04 04:55:22;;;;;;;14.82;9.48;;;;;;;;;;5083495;28;20031;-78
2022/10/04 04:57:50;;;;;;;18.08;12.27;;;;;;;;;;5083464;28;20032;-74
2022/10/04 05:00:17;;;;;;;40.35;32.67;;;;;;;;;;5084317;28;20020;-77
2022/10/04 05:02:49;;;;;;;30.38;25.90;;;;;;;;;;5083534;28;20461;-75
2022/10/04 05:05:15;;;;;;;28.33;22.52;;;;;;;;;;5080861;28;20039;-77
2022/10/04 05:07:43;;;;;;;20.58;16.90;;;;;;;;;;5080492;28;20016;-76
2022/10/04 05:10:40;;;;;;;12.18;10.43;;;;;;;;;;5077406;28;20367;-75
2022/10/04 05:13:08;;;;;;;48.95;43.80;;;;;;;;;;5014850;28;20542;-74
2022/10/04 05:15:34;;;;;;;35.78;32.03;;;;;;;;;;5012522;28;20124;-78
2022/10/04 05:18:01;;;;;;;24.27;21.63;;;;;;;;;;5007847;28;20033;-75
2022/10/04 05:20:27;;;;;;;38.92;34.92;;;;;;;;;;5007181;28;20044;-72
2022/10/04 05:22:52;;;;;;;12.60;11.15;;;;;;;;;;5006722;28;20034;-74
2022/10/04 05:25:38;;;;;;;17.98;13.20;;;;;;;;;;5006986;28;20033;-76
2022/10/04 05:28:04;;;;;;;15.75;13.52;;;;;;;;;;5005732;28;20041;-73
2022/10/04 05:30:29;;;;;;;42.13;32.00;;;;;;;;;;5008423;28;20506;-72
2022/10/04 05:33:05;;;;;;;22.98;16.05;;;;;;;;;;5012564;28;20037;-74
2022/10/04 05:35:41;;;;;;;17.17;14.50;;;;;;;;;;5009334;28;20038;-74
2022/10/04 05:38:10;;;;;;;15.20;10.88;;;;;;;;;;5021347;28;20076;-73
2022/10/04 05:40:49;;;;;;;18.27;15.98;;;;;;;;;;5005109;28;20029;-77
2022/10/04 05:43:40;;;;;;;18.38;15.25;;;;;;;;;;5003865;28;20044;-77
2022/10/04 05:46:17;;;;;;;31.58;23.73;;;;;;;;;;5005336;28;20113;-73
2022/10/04 05:48:44;;;;;;;15.93;12.25;;;;;;;;;;5010591;28;20030;-77
2022/10/04 05:51:19;;;;;;;34.05;26.70;;;;;;;;;;5018385;28;20164;-74
2022/10/04 05:53:45;;;;;;;14.48;12.45;;;;;;;;;;5020658;28;20026;-78
2022/10/04 05:56:29;;;;;;;8.63;7.72;;;;;;;;;;5020749;28;20035;-74
2022/10/04 05:58:57;;;;;;;9.45;8.00;;;;;;;;;;5016852;28;20312;-73
2022/10/04 06:01:32;;;;;;;10.15;8.23;;;;;;;;;;5023620;28;20028;-76
2022/10/04 06:04:16;;;;;;;16.48;11.82;;;;;;;;;;5035589;28;20060;-73
2022/10/04 06:07:20;;;;;;;9.15;6.72;;;;;;;;;;5036647;28;20490;-71
2022/10/04 06:10:03;;;;;;;9.73;6.80;;;;;;;;;;5013840;28;20049;-75
2022/10/04 06:12:45;;;;;;;10.43;8.15;;;;;;;;;;5036375;28;20545;-74
2022/10/04 06:15:34;;;;;;;8.27;6.80;;;;;;;;;;5033718;28;20071;-78
2022/10/04 06:18:11;;;;;;;8.25;7.40;;;;;;;;;;5032441;28;20115;-74
2022/10/04 06:20:36;;;;;;;6.38;4.97;;;;;;;;;;5035844;28;20052;-74
2022/10/04 06:23:05;;;;;;;7.00;6.30;;;;;;;;;;5060599;28;20434;-76
2022/10/04 06:25:35;;;;;;;9.50;7.35;;;;;;;;;;5082005;28;20351;-75
2022/10/04 06:28:13;;;;;;;7.95;6.70;;;;;;;;;;5082453;28;20039;-70
2022/10/04 06:30:58;;;;;;;4.45;3.58;;;;;;;;;;5081434;28;20347;-74
2022/10/04 06:33:41;;;;;;;31.17;22.30;;;;;;;;;;5079830;28;20044;-74
2022/10/04 06:36:22;;;;;;;8.15;6.97;;;;;;;;;;5066591;28;21053;-74
2022/10/04 06:39:10;;;;;;;4.80;4.40;;;;;;;;;;5067405;28;20512;-73
2022/10/04 06:41:44;;;;;;;4.43;3.95;;;;;;;;;;5068632;28;20406;-74
2022/10/04 06:44:19;;;;;;;7.28;5.85;;;;;;;;;;5066969;28;20425;-73
2022/10/04 06:46:44;;;;;;;7.50;5.68;;;;;;;;;;5071176;28;20051;-73
2022/10/04 06:49:24;;;;;;;8.68;5.45;;;;;;;;;;5067712;28;20028;-77
2022/10/04 06:51:55;;;;;;;11.45;8.30;;;;;;;;;;5067420;28;20430;-73
2022/10/04 06:54:39;;;;;;;14.82;9.60;;;;;;;;;;5068973;28;20032;-73
2022/10/04 06:57:05;;;;;;;12.65;7.43;;;;;;;;;;5067783;28;20039;-74
2022/10/04 06:59:35;;;;;;;8.02;5.88;;;;;;;;;;5067227;28;20447;-73
2022/10/04 07:02:21;;;;;;;5.80;4.55;;;;;;;;;;5067475;28;20020;-74
2022/10/04 07:04:57;;;;;;;5.00;4.30;;;;;;;;;;5065012;28;20477;-73
2022/10/04 07:07:34;;;;;;;5.57;4.38;;;;;;;;;;5067388;28;20027;-74
2022/10/04 07:10:18;;;;;;;3.88;3.47;;;;;;;;;;5066879;28;20030;-77
2022/10/04 07:12:47;;;;;;;6.50;4.93;;;;;;;;;;5070510;28;20453;-74
2022/10/04 07:15:18;;;;;;;6.13;3.63;;;;;;;;;;5071980;28;20439;-77
2022/10/04 07:17:44;;;;;;;5.70;4.95;;;;;;;;;;5079814;28;20027;-75
2022/10/04 07:20:17;;;;;;;5.47;3.63;;;;;;;;;;5082025;28;20044;-73
2022/10/04 07:22:50;;;;;;;6.05;3.40;;;;;;;;;;5081794;28;20106;-75
2022/10/04 07:25:21;;;;;;;4.32;2.85;;;;;;;;;;5081079;28;20035;-74
2022/10/04 07:29:19;;;;;;;3.75;3.40;;;;;;;;;;5080494;28;20024;-74
2022/10/04 07:30:38;;;;;;;4.57;3.75;;;;;;;;;;5069761;28;20380;-74
2022/10/04 07:33:05;;;;;;;5.07;4.10;;;;;;;;;;5077471;28;20347;-74
2022/10/04 07:35:38;;;;;;;6.13;4.68;;;;;;;;;;5072154;28;20027;-78
2022/10/04 07:38:12;;;;;;;7.10;5.80;;;;;;;;;;5068470;28;20032;-73
2022/10/04 07:41:06;;;;;;;4.40;4.00;;;;;;;;;;5066596;28;20024;-77
2022/10/04 07:43:54;;;;;;;7.10;5.70;;;;;;;;;;5062934;28;20036;-71
2022/10/04 07:46:23;;;;;;;3.38;3.08;;;;;;;;;;5071962;28;20047;-72
2022/10/04 07:48:48;;;;;;;6.20;4.90;;;;;;;;;;5071828;28;21040;-72
2022/10/04 07:51:30;;;;;;;4.07;3.67;;;;;;;;;;5070586;28;20024;-73
2022/10/04 07:54:15;;;;;;;11.30;7.13;;;;;;;;;;5071406;28;20058;-74
2022/10/04 07:56:46;;;;;;;5.25;4.75;;;;;;;;;;5071223;28;20444;-74
2022/10/04 07:59:11;;;;;;;5.40;3.63;;;;;;;;;;5068900;28;20024;-75
2022/10/04 08:01:40;;;;;;;11.63;9.15;;;;;;;;;;5071734;28;20012;-72
2022/10/04 08:04:05;;;;;;;5.68;3.90;;;;;;;;;;5074729;28;20456;-73
2022/10/04 08:06:55;;;;;;;6.15;5.25;;;;;;;;;;5083728;28;20056;-73
2022/10/04 08:09:26;;;;;;;7.25;6.55;;;;;;;;;;5084390;28;20115;-72
2022/10/04 08:12:10;;;;;;;7.20;6.43;;;;;;;;;;5084558;28;20036;-72
2022/10/04 08:14:36;;;;;;;3.55;3.22;;;;;;;;;;5083264;28;20359;-72
2022/10/04 08:17:19;;;;;;;6.47;4.03;;;;;;;;;;5082358;28;20032;-77
2022/10/04 08:19:44;;;;;;;4.25;3.40;;;;;;;;;;5074598;28;20331;-74
2022/10/04 08:22:28;;;;;;;15.07;13.57;;;;;;;;;;5083452;28;20065;-74
2022/10/04 08:24:57;;;;;;;6.68;5.32;;;;;;;;;;5083578;28;20020;-74
2022/10/04 08:27:33;;;;;;;9.10;7.03;;;;;;;;;;5084786;28;20031;-72
2022/10/04 08:30:04;;;;;;;7.47;6.78;;;;;;;;;;5082526;28;20028;-70
2022/10/04 08:32:32;;;;;;;13.85;9.80;;;;;;;;;;5075047;28;20036;-72
2022/10/04 08:35:00;;;;;;;6.50;5.35;;;;;;;;;;5083906;28;20059;-75
2022/10/04 08:37:26;;;;;;;4.93;4.25;;;;;;;;;;5079139;28;20088;-72
2022/10/04 08:39:54;;;;;;;5.90;3.85;;;;;;;;;;5075544;28;20036;-75
2022/10/04 08:42:44;;;;;;;4.53;3.58;;;;;;;;;;5083473;28;20039;-73
2022/10/04 08:45:19;;;;;;;6.88;4.82;;;;;;;;;;5081393;28;20103;-72
2022/10/04 08:47:54;;;;;;;6.30;4.95;;;;;;;;;;5082717;28;20078;-73
2022/10/04 08:50:20;;;;;;;5.85;4.93;;;;;;;;;;5082656;28;20030;-79
2022/10/04 08:52:57;;;;;;;6.53;5.82;;;;;;;;;;5080725;28;20036;-77
2022/10/04 08:55:41;;;;;;;4.85;4.45;;;;;;;;;;5068495;28;20078;-75
2022/10/04 08:58:14;;;;;;;3.05;2.85;;;;;;;;;;5078178;28;20125;-73
2022/10/04 09:00:53;;;;;;;3.17;2.80;;;;;;;;;;5077056;28;20316;-75
2022/10/04 09:03:19;;;;;;;5.13;3.40;;;;;;;;;;5076358;28;20444;-74
2022/10/04 09:05:59;;;;;;;5.45;4.03;;;;;;;;;;5082203;28;20264;-74
2022/10/04 09:08:28;;;;;;;4.90;3.38;;;;;;;;;;5081115;28;20455;-75
2022/10/04 09:10:56;;;;;;;8.35;3.40;;;;;;;;;;5083720;28;20027;-75
2022/10/04 09:13:36;;;;;;;4.15;3.40;;;;;;;;;;5081031;28;20085;-74
2022/10/04 09:16:07;;;;;;;3.35;2.97;;;;;;;;;;5083297;28;20024;-75
2022/10/04 09:18:36;;;;;;;4.68;2.60;;;;;;;;;;5083284;28;21352;-76
2022/10/04 09:21:04;;;;;;;5.80;3.70;;;;;;;;;;5082549;28;20028;-74
2022/10/04 09:23:29;;;;;;;3.65;3.25;;;;;;;;;;5071716;28;20024;-76
2022/10/04 09:26:15;;;;;;;4.60;3.17;;;;;;;;;;5083244;28;20024;-74
2022/10/04 09:28:59;;;;;;;4.70;3.90;;;;;;;;;;5081316;28;20409;-75
2022/10/04 09:31:28;;;;;;;4.97;3.63;;;;;;;;;;5083618;28;20111;-72
2022/10/04 09:34:03;;;;;;;7.53;2.80;;;;;;;;;;5083342;28;20031;-73
2022/10/04 09:36:28;;;;;;;7.35;2.45;;;;;;;;;;5081099;28;20042;-75
2022/10/04 09:39:00;;;;;;;5.57;4.00;;;;;;;;;;5080493;28;20027;-74
2022/10/04 09:41:41;;;;;;;3.47;3.15;;;;;;;;;;5079948;28;20055;-77
2022/10/04 09:44:15;;;;;;;5.25;3.38;;;;;;;;;;5083452;28;20046;-77
2022/10/04 09:46:54;;;;;;;5.78;4.32;;;;;;;;;;5081464;28;20141;-76
2022/10/04 09:49:51;;;;;;;8.50;4.83;;;;;;;;;;5081807;28;20028;-75
2022/10/04 09:52:25;;;;;;;3.47;2.60;;;;;;;;;;5023690;28;20042;-76
2022/10/04 09:54:55;;;;;;;6.82;4.85;;;;;;;;;;5023642;28;20164;-74
2022/10/04 09:57:20;;;;;;;;;;;;;;;;;;5021939;28;20033;-75
2022/10/04 09:59:52;;;;;;;3.77;2.40;;;;;;;;;;5023566;28;19913;-76
2022/10/04 10:02:25;;;;;;;3.95;3.20;;;;;;;;;;5022891;28;20044;-74
2022/10/04 10:05:09;;;;;;;6.32;4.15;;;;;;;;;;5024764;28;20432;-76
2022/10/04 10:07:48;;;;;;;6.28;3.70;;;;;;;;;;5016413;28;20033;-76
2022/10/04 10:13:41;;;;;;;5.70;3.10;;;;;;;;;;5018955;28;20204;-75
2022/10/04 10:16:06;;;;;;;;;;;;;;;;;;5019916;28;20527;-76
2022/10/04 10:18:34;;;;;;;4.43;3.30;;;;;;;;;;5005194;28;19921;-75
2022/10/04 10:21:17;;;;;;;6.25;3.33;;;;;;;;;;5022116;28;20259;-76
2022/10/04 10:23:48;;;;;;;14.57;7.93;;;;;;;;;;5022230;28;20033;-76
2022/10/04 10:26:14;;;;;;;7.72;6.82;;;;;;;;;;5020205;28;20074;-79
2022/10/04 10:28:51;;;;;;;8.18;6.75;;;;;;;;;;5069419;28;20053;-76
2022/10/04 10:31:35;;;;;;;4.40;3.90;;;;;;;;;;5081027;28;20020;-78
2022/10/04 10:34:13;;;;;;;4.88;2.58;;;;;;;;;;5080594;28;20048;-77
2022/10/04 10:36:53;;;;;;;4.00;3.40;;;;;;;;;;5080936;28;20111;-78
2022/10/04 10:39:29;;;;;;;2.47;2.28;;;;;;;;;;5080993;28;20074;-83
2022/10/04 10:42:05;;;;;;;3.38;2.60;;;;;;;;;;5080701;28;20035;-78
2022/10/04 10:44:48;;;;;;;4.30;3.20;;;;;;;;;;5081973;28;20078;-75
2022/10/04 10:47:21;;;;;;;4.72;2.20;;;;;;;;;;5081764;28;20044;-77
2022/10/04 10:49:52;;;;;;;3.22;2.38;;;;;;;;;;5079976;28;20053;-77
2022/10/04 10:52:36;;;;;;;3.10;2.55;;;;;;;;;;5081086;28;20028;-82
2022/10/04 10:55:18;;;;;;;2.35;1.90;;;;;;;;;;5074938;28;20020;-81
2022/10/04 10:57:49;;;;;;;3.05;2.20;;;;;;;;;;5074060;28;20032;-77
2022/10/04 11:00:18;;;;;;;4.30;2.63;;;;;;;;;;5071004;28;20459;-76
2022/10/04 11:03:04;;;;;;;3.90;3.17;;;;;;;;;;5071769;28;20023;-75
2022/10/04 11:05:30;;;;;;;4.50;3.67;;;;;;;;;;5072149;28;20020;-76
2022/10/04 11:08:10;;;;;;;3.05;2.33;;;;;;;;;;5071923;28;20036;-75
2022/10/04 11:10:54;;;;;;;2.80;2.55;;;;;;;;;;5073723;28;20041;-81
2022/10/04 11:13:46;;;;;;;3.38;2.50;;;;;;;;;;5078660;28;20042;-74
2022/10/04 11:16:21;;;;;;;2.45;2.13;;;;;;;;;;5079915;28;20039;-75
2022/10/04 11:18:49;;;;;;;2.22;2.03;;;;;;;;;;5080244;28;20028;-77
2022/10/04 11:21:14;;;;;;;4.03;3.38;;;;;;;;;;5078925;28;20012;-79
2022/10/04 11:23:59;;;;;;;6.93;4.63;;;;;;;;;;5081089;28;20040;-76
2022/10/04 11:26:36;;;;;;;10.32;5.07;;;;;;;;;;5078353;28;20536;-75
2022/10/04 11:29:23;;;;;;;3.15;2.88;;;;;;;;;;5081067;28;20044;-81
2022/10/04 11:31:53;;;;;;;2.75;2.47;;;;;;;;;;5079843;28;20113;-77
2022/10/04 11:34:38;;;;;;;3.30;2.45;;;;;;;;;;5080912;28;20039;-77
2022/10/04 11:37:22;;;;;;;3.97;3.08;;;;;;;;;;5081371;28;20466;-74
2022/10/04 11:39:57;;;;;;;3.60;2.65;;;;;;;;;;5081346;28;20431;-76
2022/10/04 11:42:43;;;;;;;3.45;3.15;;;;;;;;;;5079895;28;20062;-80
2022/10/04 11:45:21;;;;;;;3.28;2.97;;;;;;;;;;5080027;28;20034;-75
2022/10/04 11:48:12;;;;;;;4.03;3.25;;;;;;;;;;5079352;28;20103;-77
2022/10/04 11:50:37;;;;;;;2.97;2.17;;;;;;;;;;5073502;28;20110;-83
2022/10/04 11:53:25;;;;;;;3.08;2.30;;;;;;;;;;5071567;28;20165;-76
2022/10/04 11:56:09;;;;;;;1.90;1.70;;;;;;;;;;5074598;28;20125;-80
2022/10/04 11:58:37;;;;;;;4.45;2.40;;;;;;;;;;5079885;28;20814;-79
2022/10/04 12:01:03;;;;;;;3.25;2.80;;;;;;;;;;5081401;28;20441;-75
2022/10/04 12:03:32;;;;;;;2.95;2.30;;;;;;;;;;5079107;28;20026;-77
2022/10/04 12:06:12;;;;;;;6.57;2.30;;;;;;;;;;5080700;28;20031;-75
2022/10/04 12:08:45;;;;;;;2.55;2.33;;;;;;;;;;5081013;28;20040;-77
2022/10/04 12:11:20;;;;;;;4.85;3.20;;;;;;;;;;5079095;28;20040;-71
2022/10/04 12:13:52;;;;;;;2.58;2.38;;;;;;;;;;5081119;28;20336;-75
2022/10/04 12:16:55;;;;;;;6.28;3.70;;;;;;;;;;5080968;28;20032;-72
2022/10/04 12:19:39;;;;;;;9.10;6.05;;;;;;;;;;5052913;28;20043;-73
2022/10/04 12:22:07;;;;;;;6.40;5.07;;;;;;;;;;5076104;28;20081;-78
2022/10/04 12:24:39;;;;;;;3.28;2.92;;;;;;;;;;5067803;28;20035;-75
2022/10/04 12:27:07;;;;;;;3.50;2.70;;;;;;;;;;5073370;28;20454;-76
2022/10/04 12:29:35;;;;;;;4.00;2.90;;;;;;;;;;5079049;28;20039;-76
2022/10/04 12:32:09;;;;;;;6.07;5.47;;;;;;;;;;5080575;28;20350;-74
2022/10/04 12:34:40;;;;;;;5.45;3.88;;;;;;;;;;5073469;28;20058;-77
2022/10/04 12:37:18;;;;;;;5.03;3.63;;;;;;;;;;5083521;28;20035;-72
2022/10/04 12:39:53;;;;;;;7.20;4.68;;;;;;;;;;5083431;28;20024;-72
2022/10/04 12:42:23;;;;;;;26.60;16.13;;;;;;;;;;5082944;28;20456;-77
2022/10/04 12:44:54;;;;;;;9.50;5.57;;;;;;;;;;5082885;28;20023;-75
2022/10/04 12:47:35;;;;;;;7.90;4.45;;;;;;;;;;5083746;28;20032;-76
2022/10/04 12:50:03;;;;;;;4.32;3.53;;;;;;;;;;5082260;28;20028;-75
2022/10/04 12:52:32;;;;;;;4.82;2.88;;;;;;;;;;5083188;28;20082;-76
2022/10/04 12:55:01;;;;;;;8.98;2.30;;;;;;;;;;5072234;28;20024;-73
2022/10/04 12:57:35;;;;;;;8.00;4.95;;;;;;;;;;5082557;28;20036;-77
2022/10/04 13:00:13;;;;;;;5.63;3.42;;;;;;;;;;5078299;28;20435;-75
2022/10/04 13:02:57;;;;;;;6.10;3.92;;;;;;;;;;5071574;28;20102;-78
2022/10/04 13:05:32;;;;;;;3.90;2.60;;;;;;;;;;5071623;28;20154;-76
2022/10/04 13:08:03;;;;;;;6.50;4.80;;;;;;;;;;5071341;28;20439;-81
2022/10/04 13:10:29;;;;;;;5.40;3.08;;;;;;;;;;5069945;28;20032;-76
2022/10/04 13:13:22;;;;;;;4.85;3.47;;;;;;;;;;5070973;28;20028;-76
2022/10/04 13:15:57;;;;;;;5.07;4.18;;;;;;;;;;5072114;28;20028;-76
2022/10/04 13:18:48;;;;;;;3.47;2.42;;;;;;;;;;5073632;28;20027;-76
2022/10/04 13:21:19;;;;;;;4.13;3.72;;;;;;;;;;5052327;28;20036;-80
2022/10/04 13:23:47;;;;;;;3.83;2.72;;;;;;;;;;5072372;28;20100;-76
2022/10/04 13:26:31;;;;;;;4.18;3.30;;;;;;;;;;5073225;28;20032;-76
2022/10/04 13:29:00;;;;;;;5.57;3.55;;;;;;;;;;5071338;28;20111;-77
2022/10/04 13:31:31;;;;;;;;;;;;;;;;;;5073138;28;20032;-76
2022/10/04 13:34:05;;;;;;;3.72;2.63;;;;;;;;;;5070653;28;19988;-76
2022/10/04 13:36:47;;;;;;;4.20;3.03;;;;;;;;;;5070420;28;20332;-77
2022/10/04 13:39:16;;;;;;;6.47;3.92;;;;;;;;;;5076730;28;20447;-76
2022/10/04 13:41:41;;;;;;;3.95;2.85;;;;;;;;;;5080931;28;20024;-77
2022/10/04 13:44:16;;;;;;;3.13;2.60;;;;;;;;;;5078123;28;20032;-73
2022/10/04 13:46:42;;;;;;;5.70;3.40;;;;;;;;;;5083034;28;20040;-75
2022/10/04 13:49:13;;;;;;;4.22;2.95;;;;;;;;;;5070729;28;21319;-77
2022/10/04 13:57:44;;;;;;;4.10;2.67;;;;;;;;;;5066772;28;20027;-74
2022/10/04 14:00:13;;;;;;;4.15;2.88;;;;;;;;;;5066538;28;20024;-75
2022/10/04 14:02:58;;;;;;;7.63;5.47;;;;;;;;;;5066773;28;20055;-75
2022/10/04 14:05:23;;;;;;;3.30;2.58;;;;;;;;;;5068264;28;20032;-75
2022/10/04 14:07:56;;;;;;;4.40;2.88;;;;;;;;;;5067474;28;20030;-73
2022/10/04 14:10:40;;;;;;;6.15;3.75;;;;;;;;;;5068697;28;20098;-77
2022/10/04 14:13:24;;;;;;;5.82;4.68;;;;;;;;;;5068722;28;20032;-74
2022/10/04 14:16:01;;;;;;;4.43;3.25;;;;;;;;;;5066907;28;20038;-82
2022/10/04 14:18:54;;;;;;;7.53;5.22;;;;;;;;;;5071758;28;20548;-77
2022/10/04 14:21:25;;;;;;;4.05;3.22;;;;;;;;;;5068827;28;20042;-74
2022/10/04 14:24:14;;;;;;;4.10;3.08;;;;;;;;;;5068625;28;20324;-79
2022/10/04 14:26:57;;;;;;;3.72;2.70;;;;;;;;;;5053017;28;20457;-78
2022/10/04 14:29:34;;;;;;;4.82;4.10;;;;;;;;;;5068507;28;20058;-79
2022/10/04 14:32:28;;;;;;;5.93;4.50;;;;;;;;;;5075892;28;20036;-78
2022/10/04 14:35:03;;;;;;;4.65;3.72;;;;;;;;;;5079419;28;20055;-77
2022/10/04 14:37:48;;;;;;;6.15;5.25;;;;;;;;;;5081014;28;20024;-77
2022/10/04 14:40:37;;;;;;;6.43;4.57;;;;;;;;;;5080630;28;20028;-80
2022/10/04 14:43:21;;;;;;;6.25;3.75;;;;;;;;;;5081307;28;20025;-76
2022/10/04 14:46:06;;;;;;;6.75;3.65;;;;;;;;;;5079963;28;20060;-80
2022/10/04 14:48:50;;;;;;;4.13;3.10;;;;;;;;;;5081214;28;20682;-75
2022/10/04 14:51:21;;;;;;;7.22;5.43;;;;;;;;;;5080968;28;20537;-76
2022/10/04 14:53:59;;;;;;;5.20;4.22;;;;;;;;;;5081818;28;20032;-76
2022/10/04 14:56:42;;;;;;;5.75;3.28;;;;;;;;;;5074032;28;20058;-77
2022/10/04 14:59:07;;;;;;;9.82;6.50;;;;;;;;;;5067835;28;20118;-77
2022/10/04 15:01:34;;;;;;;8.80;7.20;;;;;;;;;;5068625;28;20506;-78
2022/10/04 15:04:10;;;;;;;8.85;5.72;;;;;;;;;;5067438;28;20020;-77
2022/10/04 15:06:47;;;;;;;10.82;6.32;;;;;;;;;;5066349;28;20423;-78
2022/10/04 15:09:25;;;;;;;13.05;6.95;;;;;;;;;;5079677;28;20350;-77
2022/10/04 15:12:15;;;;;;;9.88;6.78;;;;;;;;;;5080478;28;20024;-83
2022/10/04 15:14:44;;;;;;;4.28;3.33;;;;;;;;;;5079904;28;20447;-77
2022/10/04 15:17:23;;;;;;;4.40;2.40;;;;;;;;;;5077055;28;20031;-77
2022/10/04 15:19:58;;;;;;;4.90;3.83;;;;;;;;;;5066453;28;20027;-78
2022/10/04 15:22:26;;;;;;;6.10;2.85;;;;;;;;;;5067275;28;20016;-77
2022/10/04 15:24:52;;;;;;;6.68;4.45;;;;;;;;;;5066304;28;20032;-78
2022/10/04 15:27:23;;;;;;;6.03;3.53;;;;;;;;;;5065568;28;20012;-78